NVVVNSFA

Guest
Details From NVVV - Bauerfield
To NSFA - Faleolo International
Flight Number -
Tags decoded
Created
Modified
Stats Distance 1,471 nm / 2,724 km
Max Altitude 0 ft / 0 m
Waypoints 4
Social Downloads 1
Likes 0
Share VATSIM

Download

Looking for another format? Having issues loading an existing format? Contact us
Advertisement - Login to hide

Notes

Requested: NVVV NFFN NFTF NSFA

Route

NVVV NFFN NFTF NSFA

ID Type Via Altitude Latitude Longitude Leg Dist Tot Dist Heading (true) Name
O NVVV APT - 0 ft / 0 m -17.69818˚ 168.31754˚ - 0 nm - Bauerfield
NFFN APT - 0 ft / 0 m -17.75837˚ 177.44215˚ 521 nm 521 nm 92° / 89° Nadi Intl
NFTF APT - 0 ft / 0 m -21.24249˚ -175.14457˚ 468 nm 990 nm 118° / 115° Fua Amotu Intl
O NSFA APT - 0 ft / 0 m -13.83002˚ -172.00910˚ 479 nm 1470 nm 22° / 22° Faleolo International

Altitude Profile

Advertisement - Login to hide

Weather


0- 5 10 15 20 25 30 35+ Temperature / ° C

Clouds and Precipitation
Forecast for 2017-12-11 12:00 UTC. Updated 2 hours ago

Ground ~20,000 ft ~40,000 ft Winds

NVVV

Details ICAO NVVV (VLI)
Name Bauerfield
Region Vanuatu
Timezone Pacific/Efate (UTC+11.0)
Stats Elevation 70 ft / 21 m (AMSL)
Location -17.698183° 168.317539°
Runways 1
Magnetic Variation 11.546° E

METAR

Not found

TAF

TAF NVVV 102220Z 1100/1124 09006KT 9999 SCT020 PROB30 INTER 1100/1106 9000 -SHRA BKN018

Decode

Departure Runways

ID Width Length Bearing (true) Bearing (mag) Surface Threshold Offset Overrun Length
11 148 ft / 45 m 8,531 ft / 2,600 m 118.01° 106.46° Asphalt 0 ft / 0 m 197 ft / 60 m
29 148 ft / 45 m 8,531 ft / 2,600 m 298.01° 286.46° Asphalt 0 ft / 0 m 197 ft / 60 m

NSFA

Details ICAO NSFA (APW)
Name Faleolo International
Region American Samoa
Timezone Pacific/Apia (UTC+14.0)
Stats Elevation 58 ft / 18 m (AMSL)
Location -13.830023° -172.009102°
Runways 1
Magnetic Variation 11.656° E

METAR

NSFA 110900Z 10006KT 9999 -DZ FEW020 SCT038 OVC120 25/24 Q1008

Decode

TAF

TAF NSFA 110513Z 1106/1206 33007KT 9999 SCT018 SCT040 PROB30 TEMPO 1107/1112 5000 TSRA BKN015 FEW017CB

Decode

Destination Runways

ID Width Length Bearing (true) Bearing (mag) Surface Threshold Offset Overrun Length
08 148 ft / 45 m 10,361 ft / 3,158 m 89.30° 77.64° Asphalt 515 ft / 157 m 0 ft / 0 m
26 148 ft / 45 m 10,361 ft / 3,158 m 269.30° 257.64° Asphalt 0 ft / 0 m 102 ft / 31 m

Approach Navaids

Runway Type Ident Frequency Range Bearing (true) Bearing (mag) Slope Elevation
08 Localiser IAP 109.90 MHz 18 nm / 33 km 89.50° 77.84° - 9 ft / 3 m (AMSL)
08 Glidescope IAP 109.90 MHz 10 nm / 19 km 89.30° 77.64° 3.00° 58 ft / 18 m (AMSL)
08 DME IAP 109.90 MHz 18 nm / 33 km - - - 58 ft / 18 m (AMSL)